Time;durP1;ratioP1;P1;durP2;ratioP2;P2;SDS_P1;SDS_P2;PMS_P1;PMS_P2;Temp;Humidity;BMP_temperature;BMP_pressure;BME280_temperature;BME280_humidity;BME280_pressure;Samples;Min_cycle;Max_cycle;Signal;HPM_P1;HPM_P2
2022/07/22 00:00:35;;;;;;;3.99;3.25;;;19.10;99.90;;;;;;4640257;28;10001182;-72
2022/07/22 00:03:00;;;;;;;3.72;3.33;;;19.10;99.90;;;;;;5048420;28;20253;-72
2022/07/22 00:05:26;;;;;;;7.22;3.70;;;19.10;99.90;;;;;;5050326;28;20124;-72
2022/07/22 00:07:51;;;;;;;8.05;3.70;;;19.00;99.90;;;;;;5056740;28;20028;-72
2022/07/22 00:10:17;;;;;;;7.95;4.10;;;19.00;99.90;;;;;;5050513;28;20024;-73
2022/07/22 00:12:43;;;;;;;7.28;4.53;;;19.00;99.90;;;;;;5053162;28;20025;-73
2022/07/22 00:15:09;;;;;;;5.35;4.28;;;19.00;99.90;;;;;;5066754;28;20020;-73
2022/07/22 00:17:36;;;;;;;8.98;5.03;;;19.00;99.90;;;;;;5056663;28;20033;-73
2022/07/22 00:20:03;;;;;;;6.22;4.63;;;19.00;99.90;;;;;;5060495;28;20107;-72
2022/07/22 00:22:29;;;;;;;9.10;5.38;;;19.00;99.90;;;;;;5057915;28;20033;-73
2022/07/22 00:24:54;;;;;;;5.82;5.18;;;19.00;99.90;;;;;;5050375;28;20503;-73
2022/07/22 00:27:20;;;;;;;5.55;4.88;;;19.00;99.90;;;;;;5049408;28;20054;-73
2022/07/22 00:29:45;;;;;;;6.90;5.20;;;19.00;99.90;;;;;;5050377;28;20040;-73
2022/07/22 00:32:11;;;;;;;5.93;4.80;;;19.00;99.90;;;;;;5065219;28;20425;-73
2022/07/22 00:34:37;;;;;;;6.43;5.25;;;18.90;99.90;;;;;;5060216;28;20100;-73
2022/07/22 00:37:03;;;;;;;5.55;4.80;;;19.00;99.90;;;;;;5056539;28;20509;-73
2022/07/22 00:39:29;;;;;;;7.82;4.93;;;18.90;99.90;;;;;;5063404;28;20048;-73
2022/07/22 00:41:56;;;;;;;5.80;5.22;;;18.90;99.90;;;;;;5048584;28;20125;-73
2022/07/22 00:44:21;;;;;;;7.75;4.60;;;18.90;99.90;;;;;;5060251;28;20032;-73
2022/07/22 00:46:47;;;;;;;5.07;4.57;;;18.90;99.90;;;;;;5066636;28;20043;-73
2022/07/22 00:49:12;;;;;;;7.47;4.70;;;18.90;99.90;;;;;;5058043;28;20166;-73
2022/07/22 00:51:39;;;;;;;7.15;4.65;;;18.90;99.90;;;;;;5057729;28;20118;-73
2022/07/22 00:54:05;;;;;;;5.35;4.28;;;18.90;99.90;;;;;;5063977;28;20859;-73
2022/07/22 00:56:31;;;;;;;5.13;4.00;;;18.90;99.90;;;;;;5059488;28;20039;-74
2022/07/22 00:58:59;;;;;;;6.15;3.97;;;18.90;99.90;;;;;;5054126;28;20392;-73
2022/07/22 01:01:25;;;;;;;6.47;3.85;;;18.90;99.90;;;;;;5062169;28;20020;-73
2022/07/22 01:03:52;;;;;;;5.05;3.47;;;18.90;99.90;;;;;;5060898;28;20028;-72
2022/07/22 01:06:18;;;;;;;6.93;3.47;;;18.80;99.90;;;;;;5051157;28;20107;-72
2022/07/22 01:08:43;;;;;;;4.38;3.42;;;18.80;99.90;;;;;;5062121;28;20103;-72
2022/07/22 01:11:11;;;;;;;6.68;3.33;;;18.80;99.90;;;;;;5063185;28;20024;-72
2022/07/22 01:13:37;;;;;;;5.50;2.80;;;18.80;99.90;;;;;;5049385;28;20032;-72
2022/07/22 01:16:05;;;;;;;3.20;2.90;;;18.80;99.90;;;;;;5054772;28;20488;-72
2022/07/22 01:18:31;;;;;;;3.08;2.80;;;18.90;99.90;;;;;;5056595;28;20056;-72
2022/07/22 01:20:56;;;;;;;3.38;2.70;;;18.80;99.90;;;;;;5057804;28;20113;-72
2022/07/22 01:23:22;;;;;;;3.20;2.40;;;18.90;99.90;;;;;;5059051;28;20097;-73
2022/07/22 01:25:48;;;;;;;4.20;2.60;;;18.90;99.90;;;;;;5059283;28;20028;-73
2022/07/22 01:28:14;;;;;;;2.88;2.53;;;18.80;99.90;;;;;;5056896;28;20853;-72
2022/07/22 01:30:39;;;;;;;2.92;2.63;;;18.80;99.90;;;;;;5060935;28;20027;-73
2022/07/22 01:33:05;;;;;;;3.03;2.33;;;18.80;99.90;;;;;;5048674;28;20028;-72
2022/07/22 01:35:30;;;;;;;2.85;2.40;;;18.80;99.90;;;;;;5056467;28;20381;-72
2022/07/22 01:37:56;;;;;;;3.05;2.20;;;18.70;99.90;;;;;;5065025;28;20037;-73
2022/07/22 01:40:22;;;;;;;5.07;2.33;;;18.70;99.90;;;;;;5050369;28;20075;-73
2022/07/22 01:42:47;;;;;;;2.65;2.22;;;18.70;99.90;;;;;;5052927;28;20036;-72
2022/07/22 01:45:13;;;;;;;4.00;2.10;;;18.80;99.90;;;;;;5077133;28;20025;-73
2022/07/22 01:47:38;;;;;;;2.65;1.95;;;18.80;99.90;;;;;;5056162;28;20039;-73
2022/07/22 01:50:08;;;;;;;2.90;2.22;;;18.80;99.90;;;;;;5063275;28;20021;-73
2022/07/22 01:52:33;;;;;;;2.08;1.88;;;18.80;99.90;;;;;;5058020;28;20526;-72
2022/07/22 01:54:59;;;;;;;2.40;1.83;;;18.80;99.90;;;;;;5053009;28;20132;-73
2022/07/22 01:57:25;;;;;;;2.58;2.10;;;18.80;99.90;;;;;;5072870;28;20163;-73
2022/07/22 01:59:50;;;;;;;3.17;1.90;;;18.80;99.90;;;;;;5048448;28;20108;-73
2022/07/22 02:02:16;;;;;;;2.53;1.90;;;18.80;99.90;;;;;;5055318;28;20028;-73
2022/07/22 02:04:42;;;;;;;2.28;1.85;;;18.80;99.90;;;;;;5057071;28;20032;-73
2022/07/22 02:07:07;;;;;;;1.95;1.85;;;18.80;99.90;;;;;;5055238;28;20013;-72
2022/07/22 02:09:33;;;;;;;2.20;2.00;;;18.80;99.90;;;;;;5048696;28;20549;-72
2022/07/22 02:11:58;;;;;;;2.08;1.85;;;18.80;99.90;;;;;;5050479;28;20009;-73
2022/07/22 02:14:24;;;;;;;3.10;2.00;;;18.80;99.90;;;;;;5061279;28;20032;-73
2022/07/22 02:16:50;;;;;;;3.10;2.08;;;18.80;99.90;;;;;;5047936;28;20056;-72
2022/07/22 02:19:15;;;;;;;3.33;2.00;;;18.80;99.90;;;;;;5055839;28;20086;-72
2022/07/22 02:21:41;;;;;;;2.85;2.00;;;18.70;99.90;;;;;;5053789;28;20025;-72
2022/07/22 02:24:06;;;;;;;2.70;1.80;;;18.70;99.90;;;;;;5055624;28;20439;-72
2022/07/22 02:26:32;;;;;;;1.80;1.70;;;18.70;99.90;;;;;;5056588;28;20047;-73
2022/07/22 02:28:58;;;;;;;1.92;1.75;;;18.70;99.90;;;;;;5048469;28;20124;-72
2022/07/22 02:31:23;;;;;;;2.25;1.95;;;18.70;99.90;;;;;;5061497;28;20025;-72
2022/07/22 02:33:49;;;;;;;1.80;1.70;;;18.70;99.90;;;;;;5054449;28;20044;-72
2022/07/22 02:36:15;;;;;;;1.63;1.52;;;18.70;99.90;;;;;;5058399;28;20115;-72
2022/07/22 02:38:40;;;;;;;2.35;1.50;;;18.70;99.90;;;;;;5051251;28;20128;-72
2022/07/22 02:41:06;;;;;;;1.70;1.60;;;18.70;99.90;;;;;;5056285;28;20036;-73
2022/07/22 02:43:32;;;;;;;1.60;1.50;;;18.70;99.90;;;;;;5068045;28;20048;-72
2022/07/22 02:45:57;;;;;;;1.30;1.20;;;18.70;99.90;;;;;;5064371;28;20048;-72
2022/07/22 02:48:23;;;;;;;1.15;0.90;;;18.70;99.90;;;;;;5064325;28;20524;-73
2022/07/22 02:50:48;;;;;;;0.80;0.80;;;18.70;99.90;;;;;;5054350;28;20082;-73
2022/07/22 02:53:15;;;;;;;1.20;1.10;;;18.60;99.90;;;;;;5063525;28;20012;-73
2022/07/22 02:55:55;;;;;;;2.90;1.48;;;18.60;99.90;;;;;;5076875;28;20064;-72
2022/07/22 02:58:21;;;;;;;1.77;1.67;;;18.60;99.90;;;;;;5053256;28;20048;-73
2022/07/22 03:00:47;;;;;;;2.35;1.73;;;18.60;99.90;;;;;;5064336;28;20073;-73
2022/07/22 03:03:12;;;;;;;1.73;1.60;;;18.60;99.90;;;;;;5074686;28;20028;-73
2022/07/22 03:05:38;;;;;;;1.73;1.63;;;18.60;99.90;;;;;;5056727;28;20108;-73
2022/07/22 03:08:04;;;;;;;1.58;1.48;;;18.60;99.90;;;;;;5056130;28;20029;-73
2022/07/22 03:10:29;;;;;;;1.60;1.50;;;18.60;99.90;;;;;;5051525;28;20032;-73
2022/07/22 03:12:55;;;;;;;1.80;1.70;;;18.60;99.90;;;;;;5052681;28;20317;-72
2022/07/22 03:15:20;;;;;;;2.83;1.70;;;18.60;99.90;;;;;;5057120;28;20366;-73
2022/07/22 03:17:46;;;;;;;1.80;1.70;;;18.60;99.90;;;;;;5053766;28;20183;-72
2022/07/22 03:20:12;;;;;;;1.73;1.60;;;18.60;99.90;;;;;;5050301;28;20036;-73
2022/07/22 03:22:38;;;;;;;1.67;1.50;;;18.60;99.90;;;;;;5061451;28;20043;-73
2022/07/22 03:25:04;;;;;;;1.90;1.70;;;18.50;99.90;;;;;;5056398;28;20033;-73
2022/07/22 03:27:29;;;;;;;1.90;1.70;;;18.60;99.90;;;;;;5049915;28;20041;-73
2022/07/22 03:29:55;;;;;;;2.13;1.92;;;18.60;99.90;;;;;;5061672;28;20036;-73
2022/07/22 03:32:20;;;;;;;1.80;1.70;;;18.60;99.90;;;;;;5059934;28;20035;-72
2022/07/22 03:34:46;;;;;;;2.60;2.10;;;18.50;99.90;;;;;;5074113;28;20028;-72
2022/07/22 03:37:12;;;;;;;2.45;1.92;;;18.50;99.90;;;;;;5060886;28;20056;-73
2022/07/22 03:39:38;;;;;;;1.73;1.63;;;18.50;99.90;;;;;;5061827;28;20033;-72
2022/07/22 03:42:03;;;;;;;1.80;1.70;;;18.60;99.90;;;;;;5065335;28;20039;-72
2022/07/22 03:44:29;;;;;;;2.45;1.95;;;18.50;99.90;;;;;;5070074;28;20025;-73
2022/07/22 03:46:54;;;;;;;2.42;2.22;;;18.50;99.90;;;;;;5052556;28;20035;-72
2022/07/22 03:49:20;;;;;;;2.25;2.05;;;18.50;99.90;;;;;;5074486;28;20031;-73
2022/07/22 03:51:46;;;;;;;2.35;2.15;;;18.50;99.90;;;;;;5070904;28;20109;-73
2022/07/22 03:54:11;;;;;;;2.50;2.30;;;18.40;99.90;;;;;;5071723;28;20035;-73
2022/07/22 03:56:37;;;;;;;2.58;2.08;;;18.40;99.90;;;;;;5075130;28;20494;-73
2022/07/22 03:59:03;;;;;;;2.75;2.50;;;18.40;99.90;;;;;;5067036;28;20042;-73
2022/07/22 04:01:29;;;;;;;2.50;2.30;;;18.40;99.90;;;;;;5062514;28;20024;-73
2022/07/22 04:03:55;;;;;;;2.83;2.60;;;18.40;99.90;;;;;;5061786;28;20480;-73
2022/07/22 04:06:20;;;;;;;4.60;3.00;;;18.50;99.90;;;;;;5054380;28;20568;-73
2022/07/22 04:08:46;;;;;;;3.25;3.00;;;18.50;99.90;;;;;;5056642;28;20481;-73
2022/07/22 04:11:11;;;;;;;2.78;2.58;;;18.40;99.90;;;;;;5067226;28;20052;-73
2022/07/22 04:13:37;;;;;;;4.18;2.80;;;18.40;99.90;;;;;;5066196;28;20025;-72
2022/07/22 04:16:03;;;;;;;3.15;2.85;;;18.30;99.90;;;;;;5055092;28;20150;-73
2022/07/22 04:18:32;;;;;;;3.47;3.17;;;18.30;99.90;;;;;;5046410;28;20025;-73
2022/07/22 04:20:57;;;;;;;4.82;3.83;;;18.30;99.90;;;;;;5068024;28;20046;-74
2022/07/22 04:23:23;;;;;;;3.97;3.58;;;18.30;99.90;;;;;;5050637;28;20248;-74
2022/07/22 04:25:49;;;;;;;4.47;4.00;;;18.30;99.90;;;;;;5048332;28;20093;-74
2022/07/22 04:28:15;;;;;;;4.90;4.40;;;18.30;99.90;;;;;;5047662;28;20381;-74
2022/07/22 04:30:40;;;;;;;4.72;4.15;;;18.20;99.90;;;;;;5046672;28;20024;-74
2022/07/22 04:33:06;;;;;;;4.78;4.28;;;18.20;99.90;;;;;;5057989;28;20024;-75
2022/07/22 04:35:32;;;;;;;6.10;4.35;;;18.10;99.90;;;;;;5062189;28;20029;-74
2022/07/22 04:37:57;;;;;;;4.50;4.10;;;18.10;99.90;;;;;;5051936;28;20447;-73
2022/07/22 04:40:23;;;;;;;5.85;4.25;;;18.10;99.90;;;;;;5048342;28;20020;-73
2022/07/22 04:42:49;;;;;;;4.43;4.00;;;18.10;99.90;;;;;;5052467;28;20091;-73
2022/07/22 04:45:14;;;;;;;7.28;4.20;;;18.00;99.90;;;;;;5058254;28;20031;-73
2022/07/22 04:47:40;;;;;;;7.00;4.40;;;18.00;99.90;;;;;;5053461;28;20106;-73
2022/07/22 04:50:06;;;;;;;4.85;3.97;;;18.00;99.90;;;;;;5052463;28;20032;-73
2022/07/22 04:52:32;;;;;;;4.25;3.85;;;18.00;99.90;;;;;;5048277;28;20039;-73
2022/07/22 04:54:58;;;;;;;4.85;4.35;;;18.00;99.90;;;;;;5060261;28;20032;-73
2022/07/22 04:57:25;;;;;;;3.95;3.38;;;18.10;99.90;;;;;;5062567;28;20405;-73
2022/07/22 04:59:52;;;;;;;4.10;3.70;;;18.10;99.90;;;;;;5056315;28;20028;-73
2022/07/22 05:02:18;;;;;;;4.32;3.75;;;18.10;99.90;;;;;;5058484;28;20480;-73
2022/07/22 05:04:43;;;;;;;4.22;3.67;;;18.20;99.90;;;;;;5057619;28;20046;-73
2022/07/22 05:07:09;;;;;;;5.18;3.90;;;18.20;99.90;;;;;;5052193;28;20056;-73
2022/07/22 05:09:35;;;;;;;3.67;3.38;;;18.30;99.90;;;;;;5062544;28;20901;-73
2022/07/22 05:12:00;;;;;;;3.50;3.20;;;18.30;99.90;;;;;;5055386;28;20124;-73
2022/07/22 05:14:26;;;;;;;3.58;3.28;;;18.40;99.90;;;;;;5058316;28;20036;-73
2022/07/22 05:16:52;;;;;;;4.55;4.15;;;18.50;99.90;;;;;;5047496;28;20116;-73
2022/07/22 05:19:17;;;;;;;5.20;3.55;;;18.40;99.90;;;;;;5058621;28;20492;-73
2022/07/22 05:21:43;;;;;;;4.32;3.50;;;18.40;99.90;;;;;;5059074;28;20086;-73
2022/07/22 05:24:09;;;;;;;4.20;3.80;;;18.40;99.90;;;;;;5057313;28;20067;-73
2022/07/22 05:26:34;;;;;;;3.80;3.45;;;18.40;99.90;;;;;;5049736;28;20025;-73
2022/07/22 05:29:00;;;;;;;4.55;3.67;;;18.30;99.90;;;;;;5065903;28;20093;-73
2022/07/22 05:31:25;;;;;;;4.20;3.80;;;18.30;99.90;;;;;;5074415;28;20040;-73
2022/07/22 05:33:51;;;;;;;4.13;3.72;;;18.30;99.90;;;;;;5053899;28;20035;-73
2022/07/22 05:36:17;;;;;;;4.20;3.80;;;18.30;99.90;;;;;;5075832;28;20090;-73
2022/07/22 05:38:43;;;;;;;4.22;3.60;;;18.40;99.90;;;;;;5061060;28;20033;-73
2022/07/22 05:41:08;;;;;;;3.75;3.42;;;18.40;99.90;;;;;;5064392;28;20051;-73
2022/07/22 05:43:34;;;;;;;5.05;3.92;;;18.50;99.90;;;;;;5058228;28;20213;-73
2022/07/22 05:45:59;;;;;;;3.55;3.25;;;18.50;99.90;;;;;;5053731;28;20058;-73
2022/07/22 05:48:25;;;;;;;5.05;4.15;;;18.50;99.90;;;;;;5065547;28;20029;-73
2022/07/22 05:50:51;;;;;;;3.85;3.55;;;18.50;99.90;;;;;;5062379;28;20120;-74
2022/07/22 05:53:16;;;;;;;4.32;3.47;;;18.50;99.90;;;;;;5048142;28;20056;-73
2022/07/22 05:55:42;;;;;;;4.28;3.88;;;18.50;99.90;;;;;;5050375;28;20036;-74
2022/07/22 05:58:08;;;;;;;4.47;3.95;;;18.50;99.90;;;;;;5050416;28;20114;-73
2022/07/22 06:00:34;;;;;;;4.22;3.83;;;18.50;99.90;;;;;;5059479;28;20028;-73
2022/07/22 06:03:00;;;;;;;4.72;4.15;;;18.50;99.90;;;;;;5047337;28;20064;-73
2022/07/22 06:05:26;;;;;;;4.85;4.20;;;18.50;99.90;;;;;;5055403;28;20091;-73
2022/07/22 06:07:52;;;;;;;5.20;3.92;;;18.50;99.90;;;;;;5058823;28;21766;-73
2022/07/22 06:10:17;;;;;;;4.18;3.78;;;18.50;99.90;;;;;;5060377;28;20468;-73
2022/07/22 06:12:43;;;;;;;4.35;3.95;;;18.60;99.90;;;;;;5053251;28;20484;-73
2022/07/22 06:15:09;;;;;;;4.47;3.95;;;18.60;99.90;;;;;;5074322;28;20237;-73
2022/07/22 06:17:35;;;;;;;4.60;4.10;;;18.70;99.90;;;;;;5075047;28;20476;-73
2022/07/22 06:20:01;;;;;;;5.05;3.85;;;18.70;99.90;;;;;;5048792;28;20033;-73
2022/07/22 06:22:26;;;;;;;4.50;4.10;;;18.70;99.90;;;;;;5053775;28;20029;-73
2022/07/22 06:24:53;;;;;;;5.88;3.90;;;18.80;99.90;;;;;;5054530;28;20082;-73
2022/07/22 06:27:18;;;;;;;4.20;3.80;;;18.80;99.90;;;;;;5046712;28;20050;-73
2022/07/22 06:29:44;;;;;;;4.60;4.07;;;18.80;99.90;;;;;;5045379;28;20104;-73
2022/07/22 06:32:10;;;;;;;4.47;4.05;;;18.90;99.90;;;;;;5053790;28;20452;-74
2022/07/22 06:34:35;;;;;;;4.70;3.90;;;18.90;99.90;;;;;;5056588;28;20040;-73
2022/07/22 06:37:01;;;;;;;4.57;3.80;;;18.90;99.90;;;;;;5060855;28;20087;-73
2022/07/22 06:39:27;;;;;;;4.63;4.10;;;18.90;99.90;;;;;;5055782;28;20028;-73
2022/07/22 06:41:52;;;;;;;5.72;4.13;;;19.00;99.90;;;;;;5064961;28;20392;-73
2022/07/22 06:44:18;;;;;;;5.15;4.50;;;19.00;99.90;;;;;;5054919;28;20511;-75
2022/07/22 06:46:43;;;;;;;8.00;5.10;;;19.10;99.90;;;;;;5056831;28;20029;-75
2022/07/22 06:49:09;;;;;;;4.95;3.80;;;19.10;99.90;;;;;;5046740;28;20497;-75
2022/07/22 06:51:35;;;;;;;4.43;3.63;;;19.20;99.90;;;;;;5054561;28;20059;-75
2022/07/22 06:54:00;;;;;;;4.28;3.88;;;19.20;99.90;;;;;;5045626;28;20422;-75
2022/07/22 06:56:26;;;;;;;6.78;4.18;;;19.30;99.90;;;;;;5046098;28;20025;-75
2022/07/22 06:58:52;;;;;;;5.43;4.40;;;19.30;99.90;;;;;;5043256;28;20397;-75
2022/07/22 07:01:18;;;;;;;4.88;3.97;;;19.30;99.90;;;;;;5049601;28;20029;-75
2022/07/22 07:03:43;;;;;;;4.75;3.50;;;19.30;99.90;;;;;;5045277;28;20031;-75
2022/07/22 07:06:11;;;;;;;4.55;3.72;;;19.40;99.90;;;;;;5061465;28;20362;-75
2022/07/22 07:08:38;;;;;;;4.43;4.03;;;19.50;99.90;;;;;;5061943;28;20035;-75
2022/07/22 07:11:04;;;;;;;4.47;4.07;;;19.50;99.90;;;;;;5057964;28;20032;-75
2022/07/22 07:13:29;;;;;;;4.90;4.07;;;19.60;99.90;;;;;;5047206;28;20029;-75
2022/07/22 07:15:55;;;;;;;4.50;4.10;;;19.70;99.90;;;;;;5059658;28;20058;-75
2022/07/22 07:18:21;;;;;;;4.43;4.00;;;19.80;99.90;;;;;;5057423;28;20055;-75
2022/07/22 07:20:46;;;;;;;5.15;3.90;;;19.80;99.90;;;;;;5050616;28;20087;-75
2022/07/22 07:23:12;;;;;;;4.78;4.05;;;19.90;99.90;;;;;;5055348;28;20029;-75
2022/07/22 07:25:38;;;;;;;3.90;3.53;;;19.90;99.90;;;;;;5054188;28;20431;-73
2022/07/22 07:28:04;;;;;;;4.30;3.90;;;19.80;99.90;;;;;;5055456;28;20035;-72
2022/07/22 07:30:29;;;;;;;5.20;4.10;;;19.90;99.90;;;;;;5056160;28;20513;-73
2022/07/22 07:32:55;;;;;;;4.40;3.80;;;19.90;99.90;;;;;;5057535;28;20029;-73
2022/07/22 07:35:21;;;;;;;5.35;3.90;;;20.00;99.90;;;;;;5057796;28;20401;-73
2022/07/22 07:37:46;;;;;;;7.45;3.95;;;20.10;99.90;;;;;;5060378;28;20398;-73
2022/07/22 07:40:12;;;;;;;6.68;4.25;;;20.00;99.90;;;;;;5057897;28;20075;-73
2022/07/22 07:42:38;;;;;;;4.22;3.83;;;20.00;99.90;;;;;;5058949;28;20092;-73
2022/07/22 07:45:04;;;;;;;4.95;4.13;;;19.90;99.90;;;;;;5060149;28;20194;-73
2022/07/22 07:47:30;;;;;;;5.28;4.28;;;20.00;99.90;;;;;;5065169;28;20452;-72
2022/07/22 07:49:57;;;;;;;4.57;4.10;;;20.00;99.90;;;;;;5058519;28;20051;-73
2022/07/22 07:52:22;;;;;;;4.15;3.75;;;20.00;99.90;;;;;;5057125;28;20535;-73
2022/07/22 07:54:48;;;;;;;4.50;4.10;;;20.00;99.90;;;;;;5059677;28;20032;-73
2022/07/22 07:57:14;;;;;;;4.82;4.30;;;20.00;99.90;;;;;;5062040;28;20168;-72
2022/07/22 07:59:40;;;;;;;4.35;3.90;;;20.10;99.90;;;;;;5056030;28;20079;-72
2022/07/22 08:02:07;;;;;;;4.80;4.35;;;20.10;99.90;;;;;;5058069;28;20037;-72
2022/07/22 08:04:32;;;;;;;4.28;3.88;;;20.10;99.90;;;;;;5054073;28;20056;-72
2022/07/22 08:06:58;;;;;;;5.05;4.28;;;20.10;99.90;;;;;;5057431;28;20059;-72
2022/07/22 08:09:24;;;;;;;4.97;3.90;;;20.10;99.90;;;;;;5057483;28;20151;-72
2022/07/22 08:11:50;;;;;;;6.20;4.00;;;20.10;99.90;;;;;;5055812;28;20025;-73
2022/07/22 08:14:15;;;;;;;4.75;4.25;;;20.10;99.90;;;;;;5060930;28;20082;-72
2022/07/22 08:16:41;;;;;;;5.90;4.82;;;20.20;99.90;;;;;;5062611;28;20451;-72
2022/07/22 08:19:07;;;;;;;5.95;4.13;;;20.30;99.90;;;;;;5056742;28;20028;-72
2022/07/22 08:21:33;;;;;;;5.68;4.20;;;20.30;99.90;;;;;;5064103;28;20032;-72
2022/07/22 08:23:59;;;;;;;4.72;4.32;;;20.30;99.90;;;;;;5061289;28;20070;-72
2022/07/22 08:26:25;;;;;;;5.30;4.80;;;20.40;99.90;;;;;;5047209;28;20564;-73
2022/07/22 08:28:50;;;;;;;5.03;4.38;;;20.50;99.90;;;;;;5049883;28;20124;-72
2022/07/22 08:31:16;;;;;;;6.75;4.70;;;20.60;99.90;;;;;;5051912;28;20029;-72
2022/07/22 08:33:41;;;;;;;6.20;4.55;;;20.70;99.90;;;;;;5064662;28;20051;-72
2022/07/22 08:36:07;;;;;;;5.35;4.65;;;20.90;99.90;;;;;;5060028;28;20025;-72
2022/07/22 08:38:33;;;;;;;6.13;4.50;;;20.90;99.90;;;;;;5064857;28;20041;-72
2022/07/22 08:41:01;;;;;;;4.90;4.38;;;21.10;99.90;;;;;;5057119;28;20025;-72
2022/07/22 08:43:27;;;;;;;4.88;4.38;;;21.20;99.90;;;;;;5066522;28;20527;-72
2022/07/22 08:45:53;;;;;;;4.57;3.78;;;21.30;99.90;;;;;;5052872;28;20111;-72
2022/07/22 08:48:19;;;;;;;5.18;3.95;;;21.40;99.90;;;;;;5048862;28;20091;-72
2022/07/22 08:50:45;;;;;;;5.07;4.40;;;21.50;99.90;;;;;;5063829;28;20059;-72
2022/07/22 08:53:12;;;;;;;4.95;3.75;;;21.70;99.90;;;;;;5057091;28;20013;-72
2022/07/22 08:55:47;;;;;;;8.02;3.92;;;21.80;99.90;;;;;;5060867;28;20052;-72
2022/07/22 08:58:12;;;;;;;4.43;3.97;;;21.80;99.90;;;;;;5050650;28;20021;-72
2022/07/22 09:00:39;;;;;;;6.80;4.60;;;21.90;99.90;;;;;;5049784;28;20190;-72
2022/07/22 09:03:27;;;;;;;4.70;4.30;;;21.90;99.90;;;;;;5059243;28;20040;-72
2022/07/22 09:05:53;;;;;;;4.75;4.32;;;21.90;99.90;;;;;;5056492;28;20028;-72
2022/07/22 09:08:20;;;;;;;4.70;4.18;;;21.90;99.90;;;;;;5046773;28;20036;-72
2022/07/22 09:10:46;;;;;;;5.03;4.20;;;21.90;99.90;;;;;;5049326;28;20448;-73
2022/07/22 09:13:13;;;;;;;4.68;3.92;;;21.90;99.90;;;;;;5048830;28;20053;-73
2022/07/22 09:15:50;;;;;;;4.60;4.07;;;21.90;99.90;;;;;;5055082;28;20462;-72
2022/07/22 09:18:16;;;;;;;4.70;4.05;;;21.90;99.90;;;;;;5045452;28;20051;-73
2022/07/22 09:20:43;;;;;;;4.28;3.88;;;21.80;99.90;;;;;;5055115;28;20016;-72
2022/07/22 09:23:20;;;;;;;4.30;3.90;;;21.80;99.90;;;;;;5063657;28;20133;-72
2022/07/22 09:25:46;;;;;;;6.32;3.95;;;21.80;99.90;;;;;;5046054;28;20485;-73
2022/07/22 09:28:18;;;;;;;5.40;4.65;;;21.80;99.90;;;;;;5044209;28;20078;-73
2022/07/22 09:30:53;;;;;;;4.65;4.18;;;21.80;99.90;;;;;;5058777;28;20032;-73
2022/07/22 09:33:20;;;;;;;5.95;4.10;;;21.80;99.90;;;;;;5048247;28;20435;-73
2022/07/22 09:35:48;;;;;;;4.05;3.65;;;21.80;99.90;;;;;;5046467;28;20245;-72
2022/07/22 09:38:15;;;;;;;4.50;4.10;;;21.80;99.90;;;;;;5051565;28;20052;-73
2022/07/22 09:40:45;;;;;;;4.32;3.92;;;21.90;99.90;;;;;;5046263;28;20029;-75
2022/07/22 09:43:16;;;;;;;5.15;4.65;;;21.90;99.90;;;;;;5054485;28;20473;-73
2022/07/22 09:45:58;;;;;;;4.63;4.22;;;22.00;99.90;;;;;;5041696;28;20033;-73
2022/07/22 09:48:25;;;;;;;4.30;3.85;;;22.00;99.90;;;;;;5056346;28;20029;-73
2022/07/22 09:50:53;;;;;;;3.60;3.30;;;22.10;99.90;;;;;;5047769;28;20102;-73
2022/07/22 09:53:21;;;;;;;5.40;4.55;;;22.20;99.90;;;;;;5050425;28;20276;-74
2022/07/22 09:55:47;;;;;;;4.45;3.72;;;22.20;99.90;;;;;;5058626;28;20037;-73
2022/07/22 09:58:12;;;;;;;4.65;4.22;;;22.30;99.90;;;;;;5054695;28;20879;-73
2022/07/22 10:00:41;;;;;;;4.82;4.15;;;22.40;99.90;;;;;;5045656;28;20033;-73
2022/07/22 10:03:10;;;;;;;4.45;4.05;;;22.50;99.90;;;;;;5052118;28;20484;-74
2022/07/22 10:05:41;;;;;;;4.00;3.70;;;22.70;99.90;;;;;;5050865;28;20036;-73
2022/07/22 10:08:08;;;;;;;5.15;4.22;;;22.70;99.90;;;;;;5062918;28;20020;-73
2022/07/22 10:10:35;;;;;;;4.65;4.13;;;22.80;99.90;;;;;;5053292;28;20040;-74
2022/07/22 10:13:02;;;;;;;6.50;4.00;;;23.00;99.90;;;;;;5049523;28;20078;-74
2022/07/22 10:15:30;;;;;;;4.15;3.75;;;23.10;99.90;;;;;;5045501;28;20107;-74
2022/07/22 10:18:12;;;;;;;5.22;4.18;;;23.20;99.90;;;;;;5046361;28;20100;-74
2022/07/22 10:20:38;;;;;;;5.43;4.03;;;23.40;99.90;;;;;;5045099;28;20037;-74
2022/07/22 10:23:08;;;;;;;5.85;3.88;;;23.70;99.90;;;;;;5048933;28;20111;-74
2022/07/22 10:26:01;;;;;;;5.88;4.07;;;24.00;99.90;;;;;;5052448;28;20116;-74
2022/07/22 10:28:29;;;;;;;4.00;3.67;;;24.20;99.90;;;;;;5058598;28;20148;-74
2022/07/22 10:31:22;;;;;;;4.35;3.58;;;24.20;99.90;;;;;;5050283;28;20141;-74
2022/07/22 10:33:52;;;;;;;;;;;24.40;99.90;;;;;;5051143;28;20450;-76
2022/07/22 10:36:36;;;;;;;3.95;3.60;;;24.50;99.90;;;;;;5059289;28;19908;-75
2022/07/22 10:39:08;;;;;;;4.25;3.85;;;24.50;99.90;;;;;;5048809;28;20036;-75
2022/07/22 10:41:36;;;;;;;4.38;3.97;;;24.60;99.90;;;;;;5043582;28;20029;-76
2022/07/22 10:44:02;;;;;;;4.93;4.40;;;24.60;99.90;;;;;;5052332;28;20677;-75
2022/07/22 10:46:50;;;;;;;4.32;3.92;;;24.40;99.90;;;;;;5054814;28;20029;-75
2022/07/22 10:49:18;;;;;;;4.45;4.00;;;24.40;99.90;;;;;;5055291;28;20037;-75
2022/07/22 10:52:05;;;;;;;4.10;3.70;;;24.30;99.90;;;;;;5046708;28;20154;-76
2022/07/22 10:54:31;;;;;;;5.05;4.25;;;24.40;99.90;;;;;;5051946;28;20036;-75
2022/07/22 10:56:56;;;;;;;4.80;4.15;;;24.40;99.90;;;;;;5054365;28;20024;-74
2022/07/22 10:59:23;;;;;;;4.40;3.80;;;24.20;99.90;;;;;;5056149;28;20029;-74
2022/07/22 11:01:52;;;;;;;4.43;3.90;;;24.20;99.90;;;;;;5054792;28;20492;-74
2022/07/22 11:04:25;;;;;;;7.40;4.15;;;24.10;99.90;;;;;;5055014;28;20028;-75
2022/07/22 11:06:53;;;;;;;4.40;4.00;;;24.10;99.90;;;;;;5057716;28;20500;-74
2022/07/22 11:09:22;;;;;;;5.72;4.00;;;24.00;99.90;;;;;;5056925;28;20151;-74
2022/07/22 11:11:52;;;;;;;5.22;4.13;;;24.00;99.90;;;;;;5053413;28;20039;-74
2022/07/22 11:14:25;;;;;;;4.63;4.22;;;24.00;99.90;;;;;;5048237;28;20029;-74
2022/07/22 11:16:51;;;;;;;4.38;3.90;;;24.00;99.90;;;;;;5055099;28;20326;-74
2022/07/22 11:19:22;;;;;;;5.07;4.03;;;23.90;99.90;;;;;;5053458;28;20039;-74
2022/07/22 11:21:57;;;;;;;4.53;3.88;;;23.90;99.90;;;;;;5060339;28;20074;-74
2022/07/22 11:24:23;;;;;;;4.82;4.43;;;23.90;99.90;;;;;;5047895;28;20033;-74
2022/07/22 11:26:51;;;;;;;5.28;4.10;;;24.00;99.90;;;;;;5063665;28;20112;-73
2022/07/22 11:29:23;;;;;;;4.40;3.80;;;23.90;99.90;;;;;;5062359;28;20125;-73
2022/07/22 11:31:49;;;;;;;8.00;4.60;;;24.10;99.90;;;;;;5063518;28;20031;-73
2022/07/22 11:34:16;;;;;;;6.35;4.38;;;24.30;99.90;;;;;;5049677;28;20119;-74
2022/07/22 11:36:44;;;;;;;4.40;4.00;;;24.40;99.90;;;;;;5057502;28;20041;-73
2022/07/22 11:39:12;;;;;;;4.65;4.25;;;24.40;99.90;;;;;;5060992;28;20555;-74
2022/07/22 11:41:38;;;;;;;4.72;3.95;;;24.60;99.90;;;;;;5052589;28;20503;-74
2022/07/22 11:44:04;;;;;;;4.50;4.10;;;24.80;99.90;;;;;;5048772;28;20033;-74
2022/07/22 11:46:39;;;;;;;4.32;3.92;;;24.90;99.90;;;;;;5058292;28;20027;-75
2022/07/22 11:49:05;;;;;;;4.55;4.15;;;25.10;99.90;;;;;;5056885;28;20056;-74
2022/07/22 11:51:33;;;;;;;4.82;4.15;;;25.20;99.90;;;;;;4368919;28;10001322;-74
2022/07/22 11:53:59;;;;;;;4.20;3.80;;;25.40;99.90;;;;;;5088135;28;20044;-73
2022/07/22 11:56:25;;;;;;;6.70;4.10;;;25.50;99.70;;;;;;5087653;27;20065;-74
2022/07/22 11:58:56;;;;;;;4.20;3.80;;;25.40;99.20;;;;;;5088215;27;20032;-74
2022/07/22 12:01:24;;;;;;;3.97;3.65;;;25.50;99.20;;;;;;5086521;27;20098;-74
2022/07/22 12:03:53;;;;;;;4.32;3.92;;;25.60;99.00;;;;;;5098846;27;20015;-72
2022/07/22 12:06:20;;;;;;;5.20;4.10;;;25.60;98.80;;;;;;5093918;27;20023;-71
2022/07/22 12:08:48;;;;;;;4.45;3.95;;;25.60;98.70;;;;;;5084022;27;20206;-72
2022/07/22 12:11:16;;;;;;;6.47;4.50;;;25.50;98.60;;;;;;5089553;27;20055;-72
2022/07/22 12:13:47;;;;;;;5.25;4.72;;;25.40;98.20;;;;;;5100483;27;20039;-71
2022/07/22 12:16:28;;;;;;;5.03;4.00;;;25.20;98.30;;;;;;5090670;27;20031;-71
2022/07/22 12:18:55;;;;;;;4.57;4.18;;;25.20;98.60;;;;;;5096976;27;20035;-72
2022/07/22 12:21:22;;;;;;;5.10;4.50;;;25.30;98.60;;;;;;5093674;27;20073;-71
2022/07/22 12:24:12;;;;;;;4.80;4.30;;;25.30;98.10;;;;;;5074212;27;20029;-72
2022/07/22 12:26:46;;;;;;;4.30;3.90;;;25.40;97.80;;;;;;5052849;28;20039;-73
2022/07/22 12:29:35;;;;;;;5.32;4.13;;;25.70;97.90;;;;;;5043321;28;20051;-73
2022/07/22 12:32:15;;;;;;;4.43;4.03;;;26.00;96.20;;;;;;5046679;28;20041;-74
2022/07/22 12:35:02;;;;;;;5.07;4.10;;;26.20;96.30;;;;;;5050089;28;20175;-73
2022/07/22 12:37:43;;;;;;;4.18;3.78;;;26.60;95.50;;;;;;5047676;28;20076;-74
2022/07/22 12:40:19;;;;;;;4.90;4.38;;;26.60;94.40;;;;;;5046222;28;20674;-74
2022/07/22 12:42:59;;;;;;;5.13;4.63;;;26.80;94.50;;;;;;5055688;28;20036;-74
2022/07/22 12:45:27;;;;;;;4.60;4.20;;;26.60;94.30;;;;;;5052507;28;20029;-74
2022/07/22 12:47:55;;;;;;;4.53;4.13;;;26.30;94.20;;;;;;5056901;28;20049;-74